Time,TemperatureF,DewpointF,PressureIn,WindDirection,WindDirectionDegrees,WindSpeedMPH,WindSpeedGustMPH,Humidity,HourlyPrecipIn,Conditions,Clouds,dailyrainin,SoftwareType,DateUTC
2013-09-17 00:03:00,50.5,46.2,30.09,SE,135,8.0,10.0,85,0.00,,,0.00,meteohub,2013-09-17 05:03:00,
2013-09-17 00:08:00,50.4,46.0,30.08,South,180,7.0,10.0,85,0.00,,,0.00,meteohub,2013-09-17 05:08:00,
2013-09-17 00:14:00,50.2,45.9,30.08,SE,135,7.0,9.0,85,0.00,,,0.00,meteohub,2013-09-17 05:14:00,
2013-09-17 00:19:00,50.0,45.7,30.08,SSE,158,7.0,9.0,85,0.00,,,0.00,meteohub,2013-09-17 05:19:00,
2013-09-17 00:24:00,49.8,45.9,30.09,SSE,158,6.0,8.0,86,0.00,,,0.00,meteohub,2013-09-17 05:24:00,
2013-09-17 00:30:00,49.5,45.5,30.08,SE,135,6.0,8.0,86,0.00,,,0.00,meteohub,2013-09-17 05:30:00,
2013-09-17 00:36:00,49.3,45.3,30.08,South,180,6.0,7.0,86,0.00,,,0.00,meteohub,2013-09-17 05:36:00,
2013-09-17 00:41:00,49.1,45.1,30.08,SE,135,6.0,6.0,86,0.00,,,0.00,meteohub,2013-09-17 05:41:00,
2013-09-17 01:02:00,48.6,44.6,30.09,SE,135,6.0,7.0,86,0.00,,,0.00,meteohub,2013-09-17 06:02:00,
2013-09-17 01:12:00,48.2,44.2,30.08,SSE,158,8.0,8.0,86,0.00,,,0.00,meteohub,2013-09-17 06:12:00,
2013-09-17 01:17:00,48.2,44.2,30.08,SE,135,8.0,8.0,86,0.00,,,0.00,meteohub,2013-09-17 06:17:00,
2013-09-17 01:22:00,48.4,44.8,30.08,SSE,158,7.0,8.0,87,0.00,,,0.00,meteohub,2013-09-17 06:22:00,
2013-09-17 01:27:00,48.6,44.8,30.08,SE,135,8.0,8.0,87,0.00,,,0.00,meteohub,2013-09-17 06:27:00,
2013-09-17 01:32:00,48.4,44.8,30.08,SSE,158,7.0,8.0,87,0.00,,,0.00,meteohub,2013-09-17 06:32:00,
2013-09-17 01:37:00,48.4,44.8,30.08,SE,135,7.0,8.0,87,0.00,,,0.00,meteohub,2013-09-17 06:37:00,
2013-09-17 01:42:00,48.2,44.6,30.08,SE,135,7.0,8.0,87,0.00,,,0.00,meteohub,2013-09-17 06:42:00,
2013-09-17 01:47:00,48.2,44.6,30.08,SSE,158,5.0,8.0,87,0.00,,,0.00,meteohub,2013-09-17 06:47:00,
2013-09-17 01:52:00,47.8,44.4,30.08,SE,135,6.0,8.0,88,0.00,,,0.00,meteohub,2013-09-17 06:52:00,
2013-09-17 01:57:00,47.7,44.2,30.08,SE,135,6.0,8.0,88,0.00,,,0.00,meteohub,2013-09-17 06:57:00,
2013-09-17 02:02:00,47.7,44.2,30.08,SE,135,8.0,8.0,88,0.00,,,0.00,meteohub,2013-09-17 07:02:00,
2013-09-17 02:07:00,47.8,44.4,30.08,SSE,158,8.0,8.0,88,0.00,,,0.00,meteohub,2013-09-17 07:07:00,
2013-09-17 02:12:00,48.0,45.0,30.08,SSE,158,7.0,8.0,89,0.00,,,0.00,meteohub,2013-09-17 07:12:00,
2013-09-17 02:17:00,48.0,45.0,30.08,SE,135,8.0,8.0,89,0.00,,,0.00,meteohub,2013-09-17 07:17:00,
2013-09-17 02:22:00,48.0,45.0,30.08,SE,135,8.0,8.0,89,0.00,,,0.00,meteohub,2013-09-17 07:22:00,
2013-09-17 02:27:00,48.0,45.0,30.07,SSE,158,7.0,8.0,89,0.00,,,0.00,meteohub,2013-09-17 07:27:00,
2013-09-17 02:33:00,48.0,45.0,30.08,SE,135,8.0,8.0,89,0.00,,,0.00,meteohub,2013-09-17 07:33:00,
2013-09-17 02:38:00,48.0,45.0,30.07,SE,135,8.0,8.0,89,0.00,,,0.00,meteohub,2013-09-17 07:38:00,
2013-09-17 02:43:00,48.0,45.0,30.07,SE,135,7.0,8.0,89,0.00,,,0.00,meteohub,2013-09-17 07:43:00,
2013-09-17 02:48:00,48.2,44.8,30.07,SE,135,7.0,8.0,88,0.00,,,0.00,meteohub,2013-09-17 07:48:00,
2013-09-17 02:53:00,48.2,44.8,30.07,SE,135,7.0,8.0,88,0.00,,,0.00,meteohub,2013-09-17 07:53:00,
2013-09-17 02:58:00,48.2,44.8,30.07,SE,135,8.0,8.0,88,0.00,,,0.00,meteohub,2013-09-17 07:58:00,
2013-09-17 03:03:00,48.2,44.8,30.07,SE,135,8.0,8.0,88,0.00,,,0.00,meteohub,2013-09-17 08:03:00,
2013-09-17 03:08:00,48.2,44.8,30.07,SE,135,8.0,8.0,88,0.00,,,0.00,meteohub,2013-09-17 08:08:00,
2013-09-17 03:13:00,48.0,45.0,30.07,SE,135,8.0,8.0,89,0.00,,,0.00,meteohub,2013-09-17 08:13:00,
2013-09-17 03:18:00,48.0,45.0,30.06,SE,135,7.0,8.0,89,0.00,,,0.00,meteohub,2013-09-17 08:18:00,
2013-09-17 03:23:00,47.7,44.6,30.06,SE,135,6.0,8.0,89,0.00,,,0.00,meteohub,2013-09-17 08:23:00,
2013-09-17 03:28:00,47.5,44.4,30.06,SE,135,7.0,8.0,89,0.00,,,0.00,meteohub,2013-09-17 08:28:00,
2013-09-17 03:34:00,47.3,44.2,30.06,SE,135,7.0,8.0,89,0.00,,,0.00,meteohub,2013-09-17 08:34:00,
2013-09-17 03:39:00,46.9,43.9,30.06,SE,135,7.0,8.0,89,0.00,,,0.00,meteohub,2013-09-17 08:39:00,
2013-09-17 03:44:00,46.8,43.3,30.06,SE,135,7.0,8.0,88,0.00,,,0.00,meteohub,2013-09-17 08:44:00,
2013-09-17 03:49:00,46.6,43.2,30.06,SE,135,7.0,8.0,88,0.00,,,0.00,meteohub,2013-09-17 08:49:00,
2013-09-17 03:54:00,46.4,43.0,30.06,SE,135,7.0,8.0,88,0.00,,,0.00,meteohub,2013-09-17 08:54:00,
2013-09-17 03:59:00,46.2,43.2,30.06,SE,135,6.0,7.0,89,0.00,,,0.00,meteohub,2013-09-17 08:59:00,
2013-09-17 04:04:00,46.0,43.0,30.05,SE,135,5.0,7.0,89,0.00,,,0.00,meteohub,2013-09-17 09:04:00,
2013-09-17 04:09:00,45.7,42.6,30.05,SE,135,5.0,7.0,89,0.00,,,0.00,meteohub,2013-09-17 09:09:00,
2013-09-17 04:14:00,45.5,42.4,30.05,SE,135,6.0,7.0,89,0.00,,,0.00,meteohub,2013-09-17 09:14:00,
2013-09-17 04:19:00,45.5,42.4,30.05,SE,135,7.0,7.0,89,0.00,,,0.00,meteohub,2013-09-17 09:19:00,
2013-09-17 04:25:00,45.5,42.4,30.04,SE,135,7.0,7.0,89,0.00,,,0.00,meteohub,2013-09-17 09:25:00,
2013-09-17 04:30:00,45.3,42.3,30.04,SE,135,8.0,8.0,89,0.00,,,0.00,meteohub,2013-09-17 09:30:00,
2013-09-17 04:35:00,45.5,42.4,30.04,SE,135,8.0,8.0,89,0.00,,,0.00,meteohub,2013-09-17 09:35:00,
2013-09-17 04:40:00,45.5,42.4,30.04,SE,135,8.0,8.0,89,0.00,,,0.00,meteohub,2013-09-17 09:40:00,
2013-09-17 04:45:00,45.9,42.8,30.04,SE,135,8.0,8.0,89,0.00,,,0.00,meteohub,2013-09-17 09:45:00,
2013-09-17 04:50:00,46.2,43.5,30.04,SE,135,8.0,8.0,90,0.00,,,0.00,meteohub,2013-09-17 09:50:00,
2013-09-17 04:55:00,46.2,43.5,30.04,SE,135,8.0,8.0,90,0.00,,,0.00,meteohub,2013-09-17 09:55:00,
2013-09-17 05:00:00,46.2,43.5,30.04,SSE,158,8.0,9.0,90,0.00,,,0.00,meteohub,2013-09-17 10:00:00,
2013-09-17 05:05:00,46.2,43.5,30.04,SE,135,8.0,9.0,90,0.00,,,0.00,meteohub,2013-09-17 10:05:00,
2013-09-17 05:10:00,46.0,43.3,30.04,SE,135,8.0,9.0,90,0.00,,,0.00,meteohub,2013-09-17 10:10:00,
2013-09-17 05:15:00,46.0,43.3,30.04,SE,135,8.0,8.0,90,0.00,,,0.00,meteohub,2013-09-17 10:15:00,
2013-09-17 05:20:00,46.2,43.5,30.03,SE,135,9.0,9.0,90,0.00,,,0.00,meteohub,2013-09-17 10:20:00,
2013-09-17 05:25:00,46.4,43.7,30.03,SE,135,10.0,10.0,90,0.00,,,0.00,meteohub,2013-09-17 10:25:00,
2013-09-17 05:31:00,46.6,43.9,30.03,SE,135,9.0,10.0,90,0.00,,,0.00,meteohub,2013-09-17 10:31:00,
2013-09-17 05:36:00,46.8,44.1,30.03,SE,135,8.0,10.0,90,0.00,,,0.00,meteohub,2013-09-17 10:36:00,
2013-09-17 05:41:00,46.8,44.2,30.02,SE,135,10.0,10.0,91,0.00,,,0.00,meteohub,2013-09-17 10:41:00,
2013-09-17 05:46:00,46.9,44.4,30.02,SE,135,9.0,10.0,91,0.00,,,0.00,meteohub,2013-09-17 10:46:00,
2013-09-17 05:51:00,47.1,44.6,30.02,SE,135,11.0,11.0,91,0.00,,,0.00,meteohub,2013-09-17 10:51:00,
2013-09-17 05:56:00,47.3,44.8,30.02,SE,135,11.0,11.0,91,0.00,,,0.00,meteohub,2013-09-17 10:56:00,
2013-09-17 06:01:00,47.5,45.3,30.02,SE,135,8.0,12.0,92,0.00,,,0.00,meteohub,2013-09-17 11:01:00,
2013-09-17 06:06:00,47.3,45.1,30.02,SE,135,11.0,12.0,92,0.00,,,0.00,meteohub,2013-09-17 11:06:00,
2013-09-17 06:11:00,47.5,45.3,30.02,SE,135,8.0,11.0,92,0.00,,,0.00,meteohub,2013-09-17 11:11:00,
2013-09-17 06:16:00,47.7,45.5,30.02,SE,135,9.0,11.0,92,0.00,,,0.00,meteohub,2013-09-17 11:16:00,
2013-09-17 06:22:00,47.8,45.7,30.02,SE,135,10.0,11.0,92,0.00,,,0.00,meteohub,2013-09-17 11:22:00,
2013-09-17 06:27:00,48.0,45.9,30.02,SE,135,10.0,11.0,92,0.00,,,0.00,meteohub,2013-09-17 11:27:00,
2013-09-17 06:32:00,48.0,45.9,30.01,SE,135,10.0,11.0,92,0.00,,,0.00,meteohub,2013-09-17 11:32:00,
2013-09-17 06:37:00,48.0,45.9,30.01,SE,135,11.0,13.0,92,0.00,,,0.00,meteohub,2013-09-17 11:37:00,
2013-09-17 06:42:00,48.4,45.9,30.01,SE,135,11.0,13.0,91,0.00,,,0.00,meteohub,2013-09-17 11:42:00,
2013-09-17 06:47:00,48.7,46.6,30.01,SE,135,14.0,14.0,92,0.00,,,0.00,meteohub,2013-09-17 11:47:00,
2013-09-17 06:52:00,49.1,46.9,30.01,SE,135,11.0,14.0,92,0.00,,,0.00,meteohub,2013-09-17 11:52:00,
2013-09-17 06:57:00,49.3,47.1,30.01,SE,135,11.0,14.0,92,0.00,,,0.00,meteohub,2013-09-17 11:57:00,
2013-09-17 07:02:00,49.5,47.3,30.01,SE,135,11.0,14.0,92,0.00,,,0.00,meteohub,2013-09-17 12:02:00,
2013-09-17 07:07:00,49.6,47.5,30.01,SE,135,12.0,14.0,92,0.00,,,0.00,meteohub,2013-09-17 12:07:00,
2013-09-17 07:12:00,50.0,47.5,30.01,SE,135,14.0,15.0,91,0.00,,,0.00,meteohub,2013-09-17 12:12:00,
2013-09-17 07:17:00,50.0,47.5,30.01,SSE,158,14.0,15.0,91,0.00,,,0.00,meteohub,2013-09-17 12:17:00,
2013-09-17 07:23:00,50.4,48.2,30.01,SE,135,11.0,14.0,92,0.00,,,0.00,meteohub,2013-09-17 12:23:00,
2013-09-17 07:28:00,50.7,48.6,30.00,SE,135,13.0,14.0,92,0.00,,,0.00,meteohub,2013-09-17 12:28:00,
2013-09-17 07:33:00,51.1,48.9,30.00,SE,135,16.0,16.0,92,0.00,,,0.00,meteohub,2013-09-17 12:33:00,
2013-09-17 07:38:00,51.4,49.3,30.00,SE,135,13.0,16.0,92,0.00,,,0.00,meteohub,2013-09-17 12:38:00,
2013-09-17 07:43:00,51.6,49.5,30.01,SE,135,15.0,16.0,92,0.00,,,0.00,meteohub,2013-09-17 12:43:00,
2013-09-17 07:48:00,52.0,49.5,30.00,SE,135,17.0,17.0,91,0.00,,,0.00,meteohub,2013-09-17 12:48:00,
2013-09-17 07:53:00,52.5,50.0,30.01,SE,135,18.0,18.0,91,0.00,,,0.00,meteohub,2013-09-17 12:53:00,
2013-09-17 07:58:00,52.7,50.4,30.00,SSE,158,17.0,18.0,92,0.00,,,0.00,meteohub,2013-09-17 12:58:00,
2013-09-17 08:03:00,52.9,50.5,30.01,SE,135,17.0,20.0,92,0.00,,,0.00,meteohub,2013-09-17 13:03:00,
2013-09-17 08:08:00,53.1,50.7,30.00,SE,135,16.0,20.0,92,0.00,,,0.00,meteohub,2013-09-17 13:08:00,
2013-09-17 08:14:00,53.1,50.5,30.00,SSE,158,15.0,20.0,91,0.00,,,0.00,meteohub,2013-09-17 13:14:00,
2013-09-17 08:19:00,53.2,50.7,30.00,SE,135,17.0,19.0,91,0.00,,,0.00,meteohub,2013-09-17 13:19:00,
2013-09-17 08:24:00,53.6,51.1,30.00,SE,135,13.0,21.0,91,0.00,,,0.00,meteohub,2013-09-17 13:24:00,
2013-09-17 08:29:00,53.8,50.9,30.00,SE,135,18.0,21.0,90,0.00,,,0.00,meteohub,2013-09-17 13:29:00,
2013-09-17 08:34:00,53.8,50.9,30.00,SE,135,17.0,21.0,90,0.00,,,0.00,meteohub,2013-09-17 13:34:00,
2013-09-17 08:39:00,54.0,51.1,29.99,SE,135,19.0,19.0,90,0.00,,,0.00,meteohub,2013-09-17 13:39:00,
2013-09-17 08:44:00,54.1,51.3,29.99,South,180,16.0,19.0,90,0.00,,,0.00,meteohub,2013-09-17 13:44:00,
2013-09-17 08:50:00,54.3,51.4,29.99,South,180,17.0,19.0,90,0.00,,,0.00,meteohub,2013-09-17 13:50:00,
2013-09-17 08:55:00,54.7,51.8,29.99,SE,135,16.0,21.0,90,0.00,,,0.00,meteohub,2013-09-17 13:55:00,
2013-09-17 09:00:00,54.9,52.0,29.99,SSE,158,19.0,21.0,90,0.00,,,0.00,meteohub,2013-09-17 14:00:00,
2013-09-17 09:05:00,55.2,52.3,29.99,SE,135,20.0,20.0,90,0.00,,,0.00,meteohub,2013-09-17 14:05:00,
2013-09-17 09:10:00,55.4,52.2,29.99,SE,135,16.0,19.0,89,0.00,,,0.00,meteohub,2013-09-17 14:10:00,
2013-09-17 09:15:00,55.6,52.3,29.98,SE,135,21.0,21.0,89,0.00,,,0.00,meteohub,2013-09-17 14:15:00,
2013-09-17 09:20:00,55.6,52.2,29.98,South,180,19.0,22.0,88,0.00,,,0.00,meteohub,2013-09-17 14:20:00,
2013-09-17 09:25:00,55.6,52.2,29.98,SE,135,20.0,22.0,88,0.00,,,0.00,meteohub,2013-09-17 14:25:00,
2013-09-17 09:30:00,55.9,52.2,29.98,SE,135,22.0,23.0,87,0.00,,,0.00,meteohub,2013-09-17 14:30:00,
2013-09-17 09:35:00,56.1,52.3,29.98,SE,135,21.0,23.0,87,0.00,,,0.00,meteohub,2013-09-17 14:35:00,
2013-09-17 09:40:00,56.1,52.0,29.98,SSE,158,20.0,24.0,86,0.00,,,0.00,meteohub,2013-09-17 14:40:00,
2013-09-17 09:45:00,56.1,52.0,29.98,SE,135,19.0,25.0,86,0.00,,,0.00,meteohub,2013-09-17 14:45:00,
2013-09-17 09:51:00,56.1,51.6,29.98,South,180,24.0,25.0,85,0.00,,,0.00,meteohub,2013-09-17 14:51:00,
2013-09-17 09:56:00,56.7,52.2,29.97,SSE,158,17.0,26.0,85,0.00,,,0.00,meteohub,2013-09-17 14:56:00,
2013-09-17 10:01:00,57.6,53.1,29.97,South,180,21.0,26.0,85,0.00,,,0.00,meteohub,2013-09-17 15:01:00,
2013-09-17 10:06:00,58.8,54.3,29.98,South,180,27.0,27.0,85,0.00,,,0.00,meteohub,2013-09-17 15:06:00,
2013-09-17 10:11:00,59.5,54.3,29.96,SSE,158,25.0,27.0,83,0.00,,,0.00,meteohub,2013-09-17 15:11:00,
2013-09-17 10:16:00,59.5,54.0,29.98,SE,135,23.0,27.0,82,0.00,,,0.00,meteohub,2013-09-17 15:16:00,
2013-09-17 10:21:00,59.7,54.0,29.97,SE,135,24.0,27.0,81,0.00,,,0.00,meteohub,2013-09-17 15:21:00,
2013-09-17 10:26:00,59.9,53.8,29.97,SE,135,24.0,25.0,80,0.00,,,0.00,meteohub,2013-09-17 15:26:00,
2013-09-17 10:31:00,59.9,53.8,29.97,SE,135,23.0,24.0,80,0.00,,,0.00,meteohub,2013-09-17 15:31:00,
2013-09-17 10:36:00,59.9,53.8,29.97,South,180,22.0,24.0,80,0.00,,,0.00,meteohub,2013-09-17 15:36:00,
2013-09-17 10:41:00,60.3,54.1,29.97,SE,135,24.0,25.0,80,0.00,,,0.00,meteohub,2013-09-17 15:41:00,
2013-09-17 10:46:00,60.6,54.1,29.96,SE,135,25.0,25.0,79,0.00,,,0.00,meteohub,2013-09-17 15:46:00,
2013-09-17 10:52:00,61.5,54.7,29.96,South,180,21.0,25.0,78,0.00,,,0.00,meteohub,2013-09-17 15:52:00,
2013-09-17 10:57:00,62.4,55.0,29.96,SE,135,29.0,29.0,77,0.00,,,0.00,meteohub,2013-09-17 15:57:00,
2013-09-17 11:02:00,62.6,53.8,29.95,SE,135,27.0,29.0,73,0.00,,,0.00,meteohub,2013-09-17 16:02:00,
2013-09-17 11:07:00,62.4,53.6,29.95,SE,135,25.0,30.0,73,0.00,,,0.00,meteohub,2013-09-17 16:07:00,
2013-09-17 11:12:00,62.6,53.8,29.95,SE,135,20.0,30.0,73,0.00,,,0.00,meteohub,2013-09-17 16:12:00,
2013-09-17 11:17:00,63.5,54.7,29.95,SE,135,21.0,30.0,73,0.00,,,0.00,meteohub,2013-09-17 16:17:00,
2013-09-17 11:22:00,63.5,54.3,29.95,SE,135,23.0,27.0,72,0.00,,,0.00,meteohub,2013-09-17 16:22:00,
2013-09-17 11:27:00,64.0,54.9,29.94,SE,135,29.0,29.0,72,0.00,,,0.00,meteohub,2013-09-17 16:27:00,
2013-09-17 11:32:00,63.5,54.0,29.94,South,180,27.0,29.0,71,0.00,,,0.00,meteohub,2013-09-17 16:32:00,
2013-09-17 11:38:00,63.5,54.0,29.93,South,180,20.0,29.0,71,0.00,,,0.00,meteohub,2013-09-17 16:38:00,
2013-09-17 11:43:00,63.9,54.3,29.94,SE,135,23.0,29.0,71,0.00,,,0.00,meteohub,2013-09-17 16:43:00,
2013-09-17 11:48:00,63.7,54.1,29.94,SE,135,21.0,27.0,71,0.00,,,0.00,meteohub,2013-09-17 16:48:00,
2013-09-17 11:53:00,63.3,53.8,29.94,SSE,158,26.0,27.0,71,0.00,,,0.00,meteohub,2013-09-17 16:53:00,
2013-09-17 11:58:00,63.0,53.4,29.93,SE,135,21.0,29.0,71,0.00,,,0.00,meteohub,2013-09-17 16:58:00,
2013-09-17 12:03:00,62.6,53.1,29.93,SE,135,25.0,29.0,71,0.00,,,0.00,meteohub,2013-09-17 17:03:00,
2013-09-17 12:08:00,62.4,53.6,29.93,SE,135,19.0,29.0,73,0.00,,,0.00,meteohub,2013-09-17 17:08:00,
2013-09-17 12:13:00,62.4,53.6,29.93,South,180,21.0,27.0,73,0.00,,,0.00,meteohub,2013-09-17 17:13:00,
2013-09-17 12:18:00,62.4,53.6,29.92,SSE,158,20.0,25.0,73,0.00,,,0.00,meteohub,2013-09-17 17:18:00,
2013-09-17 12:23:00,62.8,53.6,29.93,SSE,158,20.0,26.0,72,0.00,,,0.00,meteohub,2013-09-17 17:23:00,
2013-09-17 12:28:00,63.0,53.8,29.93,SE,135,23.0,26.0,72,0.00,,,0.00,meteohub,2013-09-17 17:28:00,
2013-09-17 12:33:00,63.0,53.8,29.93,SE,135,23.0,26.0,72,0.00,,,0.00,meteohub,2013-09-17 17:33:00,
2013-09-17 12:39:00,63.1,54.0,29.92,South,180,24.0,26.0,72,0.00,,,0.00,meteohub,2013-09-17 17:39:00,
2013-09-17 12:44:00,63.1,54.0,29.93,South,180,21.0,26.0,72,0.00,,,0.00,meteohub,2013-09-17 17:44:00,
2013-09-17 12:49:00,62.8,53.6,29.92,South,180,24.0,25.0,72,0.00,,,0.00,meteohub,2013-09-17 17:49:00,
2013-09-17 12:54:00,62.8,54.0,29.93,South,180,18.0,27.0,73,0.00,,,0.00,meteohub,2013-09-17 17:54:00,
2013-09-17 12:59:00,62.6,53.8,29.92,SE,135,22.0,27.0,73,0.00,,,0.00,meteohub,2013-09-17 17:59:00,
2013-09-17 13:04:00,62.6,53.8,29.92,South,180,21.0,27.0,73,0.00,,,0.00,meteohub,2013-09-17 18:04:00,
2013-09-17 13:09:00,62.8,54.0,29.91,SE,135,25.0,26.0,73,0.00,,,0.00,meteohub,2013-09-17 18:09:00,
2013-09-17 13:14:00,62.8,54.0,29.91,South,180,22.0,28.0,73,0.00,,,0.00,meteohub,2013-09-17 18:14:00,
2013-09-17 13:19:00,62.8,54.0,29.91,South,180,20.0,28.0,73,0.00,,,0.00,meteohub,2013-09-17 18:19:00,
2013-09-17 13:24:00,63.1,54.3,29.91,SE,135,21.0,28.0,73,0.00,,,0.00,meteohub,2013-09-17 18:24:00,
2013-09-17 13:29:00,63.0,54.1,29.91,SE,135,23.0,27.0,73,0.00,,,0.00,meteohub,2013-09-17 18:29:00,
2013-09-17 13:34:00,63.0,54.1,29.91,SE,135,23.0,25.0,73,0.00,,,0.00,meteohub,2013-09-17 18:34:00,
2013-09-17 13:39:00,63.0,54.1,29.90,SE,135,23.0,23.0,73,0.00,,,0.00,meteohub,2013-09-17 18:39:00,
2013-09-17 13:45:00,63.1,54.3,29.90,South,180,18.0,23.0,73,0.00,,,0.00,meteohub,2013-09-17 18:45:00,
2013-09-17 13:50:00,63.7,54.9,29.90,SE,135,19.0,23.0,73,0.00,,,0.00,meteohub,2013-09-17 18:50:00,
2013-09-17 13:55:00,64.4,55.6,29.89,South,180,23.0,24.0,73,0.00,,,0.00,meteohub,2013-09-17 18:55:00,
2013-09-17 14:00:00,64.6,55.4,29.89,SSE,158,22.0,24.0,72,0.00,,,0.00,meteohub,2013-09-17 19:00:00,
2013-09-17 14:05:00,64.4,55.2,29.89,SE,135,21.0,24.0,72,0.00,,,0.00,meteohub,2013-09-17 19:05:00,
2013-09-17 14:10:00,63.9,54.3,29.89,SE,135,22.0,24.0,71,0.00,,,0.00,meteohub,2013-09-17 19:10:00,
2013-09-17 14:15:00,63.5,54.3,29.89,SE,135,21.0,24.0,72,0.00,,,0.00,meteohub,2013-09-17 19:15:00,
2013-09-17 14:20:00,63.3,54.1,29.88,SE,135,23.0,25.0,72,0.00,,,0.00,meteohub,2013-09-17 19:20:00,
2013-09-17 14:25:00,63.3,54.1,29.88,South,180,21.0,26.0,72,0.00,,,0.00,meteohub,2013-09-17 19:25:00,
2013-09-17 14:32:00,63.5,54.7,29.88,SSE,158,21.0,26.0,73,0.00,,,0.00,meteohub,2013-09-17 19:32:00,
2013-09-17 14:37:00,63.7,54.5,29.88,SE,135,22.0,27.0,72,0.00,,,0.00,meteohub,2013-09-17 19:37:00,
2013-09-17 14:42:00,64.0,54.9,29.87,SSE,158,22.0,27.0,72,0.00,,,0.00,meteohub,2013-09-17 19:42:00,
2013-09-17 14:47:00,64.0,54.9,29.87,SE,135,21.0,27.0,72,0.00,,,0.00,meteohub,2013-09-17 19:47:00,
2013-09-17 14:52:00,63.9,54.7,29.87,South,180,28.0,28.0,72,0.00,,,0.00,meteohub,2013-09-17 19:52:00,
2013-09-17 14:57:00,63.7,54.1,29.87,SE,135,22.0,28.0,71,0.00,,,0.00,meteohub,2013-09-17 19:57:00,
2013-09-17 15:02:00,63.5,54.3,29.86,South,180,22.0,28.0,72,0.00,,,0.00,meteohub,2013-09-17 20:02:00,
2013-09-17 15:08:00,63.3,54.1,29.86,SE,135,18.0,28.0,72,0.00,,,0.00,meteohub,2013-09-17 20:08:00,
2013-09-17 15:13:00,63.3,54.1,29.86,SE,135,26.0,28.0,72,0.00,,,0.00,meteohub,2013-09-17 20:13:00,
2013-09-17 15:18:00,63.1,54.0,29.86,SE,135,22.0,26.0,72,0.00,,,0.00,meteohub,2013-09-17 20:18:00,
2013-09-17 15:23:00,63.0,54.1,29.86,SE,135,23.0,26.0,73,0.00,,,0.00,meteohub,2013-09-17 20:23:00,
2013-09-17 15:28:00,62.6,53.8,29.86,South,180,22.0,26.0,73,0.00,,,0.00,meteohub,2013-09-17 20:28:00,
2013-09-17 15:33:00,62.4,54.0,29.85,SE,135,21.0,25.0,74,0.00,,,0.00,meteohub,2013-09-17 20:33:00,
2013-09-17 15:38:00,62.4,54.3,29.85,SE,135,23.0,25.0,75,0.00,,,0.00,meteohub,2013-09-17 20:38:00,
2013-09-17 15:43:00,62.2,54.1,29.85,SE,135,21.0,25.0,75,0.00,,,0.00,meteohub,2013-09-17 20:43:00,
2013-09-17 15:48:00,62.1,54.0,29.85,South,180,19.0,27.0,75,0.00,,,0.00,meteohub,2013-09-17 20:48:00,
2013-09-17 15:53:00,61.9,53.8,29.85,SE,135,24.0,27.0,75,0.00,,,0.00,meteohub,2013-09-17 20:53:00,
2013-09-17 15:58:00,61.7,54.1,29.86,SE,135,22.0,27.0,76,0.00,,,0.00,meteohub,2013-09-17 20:58:00,
2013-09-17 16:03:00,61.5,54.0,29.85,SE,135,22.0,27.0,76,0.00,,,0.00,meteohub,2013-09-17 21:03:00,
2013-09-17 16:08:00,61.5,54.0,29.84,SE,135,23.0,27.0,76,0.00,,,0.00,meteohub,2013-09-17 21:08:00,
2013-09-17 16:14:00,61.5,54.3,29.85,SSE,158,21.0,27.0,77,0.00,,,0.00,meteohub,2013-09-17 21:14:00,
2013-09-17 16:19:00,61.5,54.3,29.85,South,180,21.0,23.0,77,0.00,,,0.00,meteohub,2013-09-17 21:19:00,
2013-09-17 16:24:00,61.5,54.3,29.84,SE,135,15.0,24.0,77,0.00,,,0.00,meteohub,2013-09-17 21:24:00,
2013-09-17 16:29:00,61.5,54.3,29.84,SE,135,21.0,24.0,77,0.00,,,0.00,meteohub,2013-09-17 21:29:00,
2013-09-17 16:34:00,61.5,54.3,29.83,SE,135,20.0,24.0,77,0.00,,,0.00,meteohub,2013-09-17 21:34:00,
2013-09-17 16:39:00,61.5,54.3,29.83,SE,135,17.0,23.0,77,0.00,,,0.00,meteohub,2013-09-17 21:39:00,
2013-09-17 16:44:00,61.5,54.3,29.83,SSE,158,18.0,22.0,77,0.00,,,0.00,meteohub,2013-09-17 21:44:00,
2013-09-17 16:49:00,61.3,54.1,29.83,SE,135,21.0,22.0,77,0.00,,,0.00,meteohub,2013-09-17 21:49:00,
2013-09-17 16:54:00,61.2,54.0,29.84,SE,135,20.0,22.0,77,0.00,,,0.00,meteohub,2013-09-17 21:54:00,
2013-09-17 16:59:00,61.2,54.3,29.83,SE,135,23.0,24.0,78,0.00,,,0.00,meteohub,2013-09-17 21:59:00,
2013-09-17 17:04:00,61.2,54.3,29.83,SE,135,21.0,24.0,78,0.00,,,0.00,meteohub,2013-09-17 22:04:00,
2013-09-17 17:09:00,61.0,54.1,29.83,SE,135,22.0,24.0,78,0.00,,,0.00,meteohub,2013-09-17 22:09:00,
2013-09-17 17:15:00,60.8,54.3,29.83,SE,135,19.0,23.0,79,0.00,,,0.00,meteohub,2013-09-17 22:15:00,
2013-09-17 17:20:00,60.6,54.5,29.83,SE,135,16.0,25.0,80,0.00,,,0.00,meteohub,2013-09-17 22:20:00,
2013-09-17 17:25:00,60.6,54.5,29.83,SE,135,23.0,25.0,80,0.00,,,0.00,meteohub,2013-09-17 22:25:00,
2013-09-17 17:30:00,60.4,54.3,29.83,SE,135,17.0,27.0,80,0.00,,,0.00,meteohub,2013-09-17 22:30:00,
2013-09-17 17:35:00,60.3,54.1,29.83,SE,135,19.0,27.0,80,0.00,,,0.00,meteohub,2013-09-17 22:35:00,
2013-09-17 17:40:00,60.1,54.0,29.83,SE,135,21.0,21.0,80,0.00,,,0.00,meteohub,2013-09-17 22:40:00,
2013-09-17 17:45:00,59.9,54.1,29.83,SSE,158,20.0,22.0,81,0.00,,,0.00,meteohub,2013-09-17 22:45:00,
2013-09-17 17:51:00,59.9,54.1,29.82,SSE,158,18.0,23.0,81,0.00,,,0.00,meteohub,2013-09-17 22:51:00,
2013-09-17 17:56:00,59.9,54.1,29.82,SE,135,21.0,23.0,81,0.00,,,0.00,meteohub,2013-09-17 22:56:00,
2013-09-17 18:01:00,59.7,54.0,29.82,SE,135,22.0,23.0,81,0.00,,,0.00,meteohub,2013-09-17 23:01:00,
2013-09-17 18:06:00,59.7,54.0,29.83,SE,135,18.0,23.0,81,0.00,,,0.00,meteohub,2013-09-17 23:06:00,
2013-09-17 18:11:00,59.5,53.8,29.82,South,180,20.0,23.0,81,0.00,,,0.00,meteohub,2013-09-17 23:11:00,
2013-09-17 18:16:00,59.5,54.0,29.82,SE,135,17.0,23.0,82,0.00,,,0.00,meteohub,2013-09-17 23:16:00,
2013-09-17 18:21:00,59.5,54.0,29.82,South,180,19.0,22.0,82,0.00,,,0.00,meteohub,2013-09-17 23:21:00,
2013-09-17 18:26:00,59.5,54.0,29.82,South,180,18.0,21.0,82,0.00,,,0.00,meteohub,2013-09-17 23:26:00,
2013-09-17 18:32:00,59.4,53.8,29.81,SE,135,18.0,21.0,82,0.00,,,0.00,meteohub,2013-09-17 23:32:00,
2013-09-17 18:37:00,59.4,53.8,29.81,SSE,158,19.0,21.0,82,0.00,,,0.00,meteohub,2013-09-17 23:37:00,
2013-09-17 18:42:00,59.2,53.6,29.81,SE,135,19.0,21.0,82,0.00,,,0.00,meteohub,2013-09-17 23:42:00,
2013-09-17 18:47:00,59.2,53.6,29.81,SE,135,19.0,21.0,82,0.00,,,0.00,meteohub,2013-09-17 23:47:00,
2013-09-17 18:52:00,59.0,53.8,29.81,SE,135,21.0,23.0,83,0.00,,,0.00,meteohub,2013-09-17 23:52:00,
2013-09-17 18:57:00,58.6,53.8,29.81,SE,135,18.0,25.0,84,0.00,,,0.00,meteohub,2013-09-17 23:57:00,
2013-09-17 19:02:00,58.5,53.6,29.81,SE,135,17.0,25.0,84,0.00,,,0.00,meteohub,2013-09-18 00:02:00,
2013-09-17 19:07:00,58.3,53.8,29.81,SE,135,21.0,25.0,85,0.00,,,0.00,meteohub,2013-09-18 00:07:00,
2013-09-17 19:12:00,58.3,53.8,29.81,South,180,20.0,21.0,85,0.00,,,0.00,meteohub,2013-09-18 00:12:00,
2013-09-17 19:17:00,58.1,53.6,29.81,SE,135,20.0,23.0,85,0.00,,,0.00,meteohub,2013-09-18 00:17:00,
2013-09-17 19:22:00,57.9,53.8,29.81,SE,135,20.0,23.0,86,0.00,,,0.00,meteohub,2013-09-18 00:22:00,
2013-09-17 19:27:00,57.9,53.8,29.81,SE,135,18.0,23.0,86,0.00,,,0.00,meteohub,2013-09-18 00:27:00,
2013-09-17 19:32:00,57.9,53.8,29.81,SE,135,12.0,22.0,86,0.00,,,0.00,meteohub,2013-09-18 00:32:00,
2013-09-17 19:37:00,57.7,53.6,29.81,SE,135,17.0,22.0,86,0.00,,,0.00,meteohub,2013-09-18 00:37:00,
2013-09-17 19:42:00,57.7,54.0,29.81,SE,135,17.0,22.0,87,0.00,,,0.00,meteohub,2013-09-18 00:42:00,
2013-09-17 19:48:00,57.7,54.0,29.80,SE,135,17.0,17.0,87,0.00,,,0.00,meteohub,2013-09-18 00:48:00,
2013-09-17 19:53:00,57.6,53.8,29.81,SE,135,18.0,24.0,87,0.00,,,0.00,meteohub,2013-09-18 00:53:00,
2013-09-17 19:58:00,57.6,53.8,29.81,South,180,17.0,24.0,87,0.00,,,0.00,meteohub,2013-09-18 00:58:00,
2013-09-17 20:03:00,57.6,54.0,29.81,SSE,158,19.0,24.0,88,0.00,,,0.00,meteohub,2013-09-18 01:03:00,
2013-09-17 20:08:00,57.4,53.8,29.81,SE,135,17.0,21.0,88,0.00,,,0.00,meteohub,2013-09-18 01:08:00,
2013-09-17 20:13:00,57.4,53.8,29.81,SE,135,18.0,21.0,88,0.00,,,0.00,meteohub,2013-09-18 01:13:00,
2013-09-17 20:18:00,57.4,53.8,29.80,South,180,18.0,21.0,88,0.00,,,0.00,meteohub,2013-09-18 01:18:00,
2013-09-17 20:24:00,57.4,54.1,29.80,SE,135,15.0,19.0,89,0.00,,,0.00,meteohub,2013-09-18 01:24:00,
2013-09-17 20:29:00,57.4,54.1,29.81,SE,135,15.0,21.0,89,0.00,,,0.00,meteohub,2013-09-18 01:29:00,
2013-09-17 20:34:00,57.4,54.1,29.81,SSE,158,16.0,21.0,89,0.00,,,0.00,meteohub,2013-09-18 01:34:00,
2013-09-17 20:39:00,57.4,54.1,29.80,SE,135,21.0,21.0,89,0.00,,,0.00,meteohub,2013-09-18 01:39:00,
2013-09-17 20:44:00,57.4,54.1,29.80,SE,135,17.0,21.0,89,0.00,,,0.00,meteohub,2013-09-18 01:44:00,
2013-09-17 20:49:00,57.4,54.1,29.80,SE,135,18.0,21.0,89,0.00,,,0.00,meteohub,2013-09-18 01:49:00,
2013-09-17 20:54:00,57.4,54.1,29.80,SE,135,18.0,21.0,89,0.00,,,0.00,meteohub,2013-09-18 01:54:00,
2013-09-17 20:59:00,57.6,54.7,29.80,SE,135,18.0,21.0,90,0.00,,,0.00,meteohub,2013-09-18 01:59:00,
2013-09-17 21:04:00,57.6,54.7,29.79,SE,135,19.0,19.0,90,0.00,,,0.00,meteohub,2013-09-18 02:04:00,
2013-09-17 21:09:00,57.6,54.7,29.80,SE,135,17.0,19.0,90,0.00,,,0.00,meteohub,2013-09-18 02:09:00,
2013-09-17 21:14:00,57.6,54.7,29.80,SE,135,15.0,19.0,90,0.00,,,0.00,meteohub,2013-09-18 02:14:00,
2013-09-17 21:20:00,57.6,54.7,29.79,South,180,18.0,21.0,90,0.00,,,0.00,meteohub,2013-09-18 02:20:00,
2013-09-17 21:25:00,57.6,55.0,29.80,SE,135,20.0,21.0,91,0.00,,,0.00,meteohub,2013-09-18 02:25:00,
2013-09-17 21:30:00,57.6,55.0,29.79,SE,135,17.0,21.0,91,0.00,,,0.00,meteohub,2013-09-18 02:30:00,
2013-09-17 21:35:00,57.7,55.2,29.79,SSE,158,17.0,21.0,91,0.00,,,0.00,meteohub,2013-09-18 02:35:00,
2013-09-17 21:40:00,57.7,55.2,29.79,SE,135,17.0,21.0,91,0.00,,,0.00,meteohub,2013-09-18 02:40:00,
2013-09-17 21:45:00,57.7,55.2,29.79,SE,135,17.0,21.0,91,0.00,,,0.00,meteohub,2013-09-18 02:45:00,
2013-09-17 21:50:00,57.7,55.2,29.79,South,180,11.0,19.0,91,0.00,,,0.00,meteohub,2013-09-18 02:50:00,
2013-09-17 21:55:00,57.7,55.2,29.79,SE,135,16.0,19.0,91,0.00,,,0.00,meteohub,2013-09-18 02:55:00,
2013-09-17 22:00:00,57.9,55.2,29.79,SE,135,16.0,18.0,91,0.00,,,0.00,meteohub,2013-09-18 03:00:00,
2013-09-17 22:05:00,57.9,55.2,29.79,SE,135,15.0,18.0,91,0.00,,,0.00,meteohub,2013-09-18 03:05:00,
2013-09-17 22:10:00,57.9,55.2,29.79,SE,135,15.0,17.0,91,0.00,,,0.00,meteohub,2013-09-18 03:10:00,
2013-09-17 22:15:00,57.9,55.2,29.79,SSE,158,15.0,17.0,91,0.00,,,0.00,meteohub,2013-09-18 03:15:00,
2013-09-17 22:20:00,57.9,55.2,29.79,SE,135,15.0,17.0,91,0.00,,,0.00,meteohub,2013-09-18 03:20:00,
2013-09-17 22:26:00,58.1,55.8,29.79,SE,135,16.0,17.0,92,0.00,,,0.00,meteohub,2013-09-18 03:26:00,
2013-09-17 22:31:00,58.1,55.8,29.78,SE,135,17.0,19.0,92,0.00,,,0.00,meteohub,2013-09-18 03:31:00,
2013-09-17 22:36:00,58.1,55.8,29.78,SSE,158,15.0,19.0,92,0.00,,,0.00,meteohub,2013-09-18 03:36:00,
2013-09-17 22:41:00,58.1,55.8,29.79,SE,135,15.0,19.0,92,0.00,,,0.00,meteohub,2013-09-18 03:41:00,
2013-09-17 22:46:00,58.3,55.9,29.79,SE,135,14.0,19.0,92,0.00,,,0.00,meteohub,2013-09-18 03:46:00,
2013-09-17 22:51:00,58.3,55.9,29.79,SE,135,12.0,16.0,92,0.00,,,0.00,meteohub,2013-09-18 03:51:00,
2013-09-17 22:56:00,58.3,55.9,29.78,SE,135,15.0,16.0,92,0.00,,,0.00,meteohub,2013-09-18 03:56:00,
2013-09-17 23:01:00,58.5,56.1,29.78,SE,135,13.0,16.0,92,0.00,,,0.00,meteohub,2013-09-18 04:01:00,
2013-09-17 23:02:00,58.5,56.1,29.78,SE,135,13.0,16.0,92,0.00,,,0.00,meteohub,2013-09-18 04:02:00,
2013-09-17 23:05:00,58.5,56.1,29.78,SE,135,13.0,16.0,92,0.00,,,0.00,meteohub,2013-09-18 04:05:00,
2013-09-17 23:10:00,58.5,56.1,29.78,SE,135,11.0,15.0,92,0.00,,,0.00,meteohub,2013-09-18 04:10:00,
2013-09-17 23:15:00,58.6,56.3,29.78,SE,135,11.0,13.0,92,0.00,,,0.00,meteohub,2013-09-18 04:15:00,
2013-09-17 23:20:00,58.6,56.3,29.78,SE,135,11.0,13.0,92,0.00,,,0.00,meteohub,2013-09-18 04:20:00,
2013-09-17 23:25:00,58.6,56.3,29.78,SE,135,9.0,12.0,92,0.00,,,0.00,meteohub,2013-09-18 04:25:00,
2013-09-17 23:30:00,58.6,56.3,29.78,SSE,158,9.0,11.0,92,0.00,,,0.00,meteohub,2013-09-18 04:30:00,
2013-09-17 23:35:00,58.6,56.3,29.78,South,180,8.0,11.0,92,0.00,,,0.00,meteohub,2013-09-18 04:35:00,
2013-09-17 23:41:00,58.6,56.3,29.78,South,180,2.0,10.0,92,0.00,,,0.00,meteohub,2013-09-18 04:41:00,
2013-09-17 23:46:00,58.8,56.5,29.78,South,180,8.0,10.0,92,0.00,,,0.00,meteohub,2013-09-18 04:46:00,
2013-09-17 23:51:00,58.8,56.5,29.78,SE,135,4.0,8.0,92,0.00,,,0.00,meteohub,2013-09-18 04:51:00,
2013-09-17 23:56:00,59.0,56.3,29.78,SE,135,1.0,8.0,91,0.00,,,0.00,meteohub,2013-09-18 04:56:00,